Time;durP1;ratioP1;P1;durP2;ratioP2;P2;SDS_P1;SDS_P2;PMS_P1;PMS_P2;Temp;Humidity;BMP_temperature;BMP_pressure;BME280_temperature;BME280_humidity;BME280_pressure;Samples;Min_cycle;Max_cycle;Signal;HPM_P1;HPM_P2
2023/12/23 00:02:10;;;;;;;0.10;0.10;;;12.00;84.40;10.80;95274.00;;;;4983346;28;20206;-86
2023/12/23 00:04:37;;;;;;;0.40;0.10;;;12.00;84.50;10.80;95278.00;;;;4977828;28;20551;-86
2023/12/23 00:07:04;;;;;;;0.10;0.10;;;12.00;84.60;10.80;95293.00;;;;4981019;28;20235;-86
2023/12/23 00:09:31;;;;;;;0.10;0.10;;;12.00;84.60;10.80;95281.00;;;;4975273;28;20226;-86
2023/12/23 00:11:59;;;;;;;0.10;0.10;;;12.00;85.20;10.80;95281.00;;;;4973616;28;20221;-85
2023/12/23 00:14:27;;;;;;;2.30;0.30;;;12.00;84.50;10.80;95267.00;;;;4978695;28;20740;-86
2023/12/23 00:16:54;;;;;;;0.10;0.10;;;12.00;84.30;10.80;95296.00;;;;4981302;28;20227;-86
2023/12/23 00:19:22;;;;;;;0.10;0.10;;;12.00;84.40;10.80;95278.00;;;;4972875;28;20314;-86
2023/12/23 00:21:49;;;;;;;0.20;0.10;;;12.00;84.50;10.80;95291.00;;;;4972482;28;20270;-85
2023/12/23 00:24:17;;;;;;;0.10;0.10;;;12.00;84.40;10.80;95291.00;;;;4986472;28;20492;-86
2023/12/23 00:26:44;;;;;;;0.20;0.10;;;12.00;84.30;10.80;95299.00;;;;4978295;28;20218;-86
2023/12/23 00:29:11;;;;;;;0.10;0.10;;;12.00;84.20;10.80;95321.00;;;;4981444;28;20227;-86
2023/12/23 00:31:40;;;;;;;0.10;0.10;;;12.00;84.30;10.70;95314.00;;;;4976799;28;20250;-86
2023/12/23 00:34:09;;;;;;;0.03;0.03;;;12.00;84.30;10.80;95315.00;;;;4973173;28;20195;-86
2023/12/23 00:36:37;;;;;;;0.87;0.23;;;12.00;84.50;10.80;95318.00;;;;4975636;28;20241;-86
2023/12/23 00:39:05;;;;;;;0.33;0.10;;;12.00;84.50;10.80;95306.00;;;;4987097;28;20791;-86
2023/12/23 00:41:33;;;;;;;0.13;0.10;;;12.00;84.60;10.70;95309.00;;;;4979279;28;20642;-86
2023/12/23 00:44:01;;;;;;;0.50;0.10;;;12.00;84.60;10.70;95307.00;;;;4968918;28;20223;-86
2023/12/23 00:46:29;;;;;;;0.20;0.20;;;12.00;84.60;10.70;95308.00;;;;4971303;28;20223;-86
2023/12/23 00:48:58;;;;;;;0.10;0.10;;;12.00;84.50;10.70;95304.00;;;;4981393;28;20206;-86
2023/12/23 00:51:25;;;;;;;0.10;0.10;;;12.00;84.40;10.70;95292.00;;;;4980743;28;20215;-86
2023/12/23 00:53:52;;;;;;;0.10;0.10;;;12.00;84.40;10.80;95297.00;;;;4971601;28;20235;-86
2023/12/23 00:56:20;;;;;;;0.30;0.10;;;12.00;84.40;10.80;95305.00;;;;4967726;28;20715;-86
2023/12/23 00:58:47;;;;;;;0.10;0.10;;;12.00;85.00;10.80;95328.00;;;;4981464;28;20217;-85
2023/12/23 01:01:15;;;;;;;0.10;0.10;;;12.00;84.20;10.80;95300.00;;;;4973352;28;20219;-86
2023/12/23 01:03:43;;;;;;;0.20;0.10;;;12.00;84.30;10.80;95315.00;;;;4979677;28;20230;-87
2023/12/23 01:06:11;;;;;;;0.00;0.00;;;12.00;84.20;10.80;95304.00;;;;4983533;28;20226;-86
2023/12/23 01:08:39;;;;;;;0.30;0.10;;;12.00;84.00;10.80;95326.00;;;;4978295;28;20282;-86
2023/12/23 01:11:06;;;;;;;0.10;0.10;;;12.00;84.00;10.80;95321.00;;;;4974643;28;20746;-86
2023/12/23 01:13:33;;;;;;;0.10;0.10;;;12.00;84.10;10.80;95333.00;;;;4975366;28;20207;-86
2023/12/23 01:16:00;;;;;;;0.10;0.10;;;12.00;83.80;10.80;95335.00;;;;4973216;28;20707;-86
2023/12/23 01:18:27;;;;;;;0.10;0.10;;;12.00;83.70;10.80;95323.00;;;;4976074;28;20609;-86
2023/12/23 01:20:54;;;;;;;0.30;0.20;;;12.00;83.60;10.80;95317.00;;;;4970787;28;20314;-86
2023/12/23 01:23:23;;;;;;;0.30;0.03;;;12.00;83.50;10.80;95337.00;;;;4972526;28;20552;-86
2023/12/23 01:25:51;;;;;;;0.10;0.00;;;12.00;83.50;10.80;95328.00;;;;4970634;28;20860;-87
2023/12/23 01:28:18;;;;;;;0.30;0.17;;;12.00;83.50;10.90;95320.00;;;;4976100;28;20225;-86
2023/12/23 01:30:45;;;;;;;0.20;0.10;;;12.10;84.20;10.90;95347.00;;;;4983646;28;20234;-86
2023/12/23 01:33:12;;;;;;;0.10;0.10;;;12.10;83.50;10.80;95347.00;;;;4971766;28;20685;-86
2023/12/23 01:35:39;;;;;;;0.60;0.07;;;12.10;83.50;10.80;95377.00;;;;4976232;28;20261;-86
2023/12/23 01:38:07;;;;;;;0.70;0.10;;;12.00;83.50;10.80;95406.00;;;;4973828;28;20210;-86
2023/12/23 01:40:35;;;;;;;0.10;0.10;;;12.00;83.60;10.80;95383.00;;;;4972151;28;20250;-86
2023/12/23 01:43:02;;;;;;;0.10;0.10;;;12.00;83.60;10.80;95379.00;;;;4980911;28;20201;-86
2023/12/23 01:45:29;;;;;;;0.13;0.10;;;12.00;83.60;10.80;95414.00;;;;4990303;28;20707;-86
2023/12/23 01:48:00;;;;;;;0.10;0.10;;;12.00;83.80;10.70;95415.00;;;;4982001;28;20847;-86
2023/12/23 01:50:29;;;;;;;0.40;0.10;;;12.00;83.80;10.70;95444.00;;;;4978475;28;20207;-85
2023/12/23 01:52:58;;;;;;;1.40;0.20;;;12.00;83.90;10.70;95443.00;;;;4987220;28;20677;-86
2023/12/23 01:55:27;;;;;;;0.53;0.20;;;12.00;83.80;10.70;95438.00;;;;4978367;28;20306;-86
2023/12/23 01:57:57;;;;;;;0.20;0.10;;;12.00;83.80;10.70;95458.00;;;;4979684;28;20198;-86
2023/12/23 02:00:24;;;;;;;0.10;0.00;;;12.00;83.80;10.70;95431.00;;;;4974647;28;20311;-86
2023/12/23 02:02:51;;;;;;;0.77;0.10;;;12.00;83.80;10.70;95444.00;;;;4973020;28;20206;-86
2023/12/23 02:05:18;;;;;;;0.00;0.00;;;12.00;83.80;10.70;95447.00;;;;4970723;28;20311;-86
2023/12/23 02:07:45;;;;;;;0.10;0.10;;;12.00;83.70;10.70;95449.00;;;;4972955;28;20199;-86
2023/12/23 02:10:14;;;;;;;0.30;0.20;;;12.00;83.60;10.70;95448.00;;;;4976789;28;20208;-86
2023/12/23 02:12:56;;;;;;;0.00;0.00;;;12.00;83.50;10.70;95438.00;;;;4967709;28;20298;-86
2023/12/23 02:15:28;;;;;;;0.17;0.10;;;12.00;83.30;10.70;95447.00;;;;4962827;28;20733;-86
2023/12/23 02:18:02;;;;;;;0.10;0.10;;;12.00;83.30;10.70;95447.00;;;;4974064;28;20202;-86
2023/12/23 02:20:30;;;;;;;0.10;0.10;;;12.00;83.00;10.70;95442.00;;;;4975406;28;20725;-86
2023/12/23 02:22:58;;;;;;;0.10;0.10;;;12.00;83.20;10.70;95470.00;;;;4970022;28;20219;-86
2023/12/23 02:25:25;;;;;;;0.13;0.00;;;12.00;83.00;10.70;95460.00;;;;4977482;28;20247;-86
2023/12/23 02:27:56;;;;;;;0.10;0.10;;;11.90;83.00;10.70;95491.00;;;;4970658;28;20914;-85
2023/12/23 02:30:25;;;;;;;0.10;0.10;;;11.90;82.80;10.70;95488.00;;;;4963352;28;20551;-86
2023/12/23 02:32:53;;;;;;;0.10;0.10;;;11.90;82.90;10.70;95476.00;;;;4979829;28;20270;-86
2023/12/23 02:35:27;;;;;;;0.13;0.10;;;11.90;82.80;10.70;95483.00;;;;4980251;28;20219;-87
2023/12/23 02:37:55;;;;;;;0.53;0.10;;;11.90;82.60;10.70;95501.00;;;;4982552;28;20817;-86
2023/12/23 02:40:24;;;;;;;0.10;0.10;;;11.90;83.00;10.70;95500.00;;;;4979406;28;20233;-86
2023/12/23 02:42:51;;;;;;;0.10;0.00;;;11.90;82.80;10.70;95490.00;;;;4983836;28;20230;-86
2023/12/23 02:45:18;;;;;;;1.03;0.40;;;11.90;82.70;10.70;95489.00;;;;4991263;28;20311;-86
2023/12/23 02:47:47;;;;;;;0.37;0.10;;;11.90;82.60;10.70;95486.00;;;;4983205;28;20633;-85
2023/12/23 02:50:14;;;;;;;0.07;0.07;;;11.90;82.80;10.70;95504.00;;;;4967356;28;20236;-86
2023/12/23 02:52:41;;;;;;;0.17;0.10;;;11.90;82.80;10.70;95507.00;;;;4980297;28;20231;-86
2023/12/23 02:55:09;;;;;;;0.50;0.10;;;11.90;82.90;10.70;95502.00;;;;4977354;28;20239;-87
2023/12/23 02:57:37;;;;;;;0.00;0.00;;;11.90;83.10;10.70;95520.00;;;;4995289;28;20225;-86
2023/12/23 03:00:06;;;;;;;0.17;0.10;;;11.90;82.80;10.70;95531.00;;;;4979438;28;20277;-87
2023/12/23 03:02:33;;;;;;;0.10;0.10;;;11.90;82.90;10.70;95533.00;;;;4989462;28;20203;-86
2023/12/23 03:05:00;;;;;;;0.27;0.10;;;11.90;83.00;10.70;95510.00;;;;4974679;28;20243;-86
2023/12/23 03:07:27;;;;;;;0.20;0.20;;;11.90;83.00;10.70;95536.00;;;;4979020;28;20206;-86
2023/12/23 03:09:54;;;;;;;0.33;0.10;;;11.90;82.90;10.70;95522.00;;;;4975606;28;20203;-86
2023/12/23 03:12:21;;;;;;;0.30;0.10;;;11.90;82.80;10.70;95529.00;;;;4984130;28;20278;-86
2023/12/23 03:14:50;;;;;;;0.50;0.20;;;11.90;82.60;10.70;95530.00;;;;4977179;28;20227;-86
2023/12/23 03:17:17;;;;;;;0.10;0.10;;;11.90;82.70;10.70;95542.00;;;;4981173;28;20699;-86
2023/12/23 03:19:44;;;;;;;0.00;0.00;;;11.90;82.80;10.60;95546.00;;;;4988111;28;20230;-87
2023/12/23 03:22:11;;;;;;;0.00;0.00;;;11.90;82.80;10.60;95544.00;;;;4984996;28;20246;-86
2023/12/23 03:24:38;;;;;;;0.10;0.10;;;11.90;83.00;10.60;95566.00;;;;4981669;28;20287;-86
2023/12/23 03:27:06;;;;;;;0.10;0.10;;;11.90;83.10;10.50;95547.00;;;;4982603;28;20235;-86
2023/12/23 03:29:33;;;;;;;0.10;0.10;;;11.80;83.10;10.60;95568.00;;;;4974492;28;20290;-86
2023/12/23 03:32:01;;;;;;;0.10;0.10;;;11.80;83.20;10.60;95558.00;;;;4979756;28;20242;-86
2023/12/23 03:34:29;;;;;;;0.40;0.10;;;11.80;83.20;10.50;95564.00;;;;4977366;28;20298;-87
2023/12/23 03:37:21;;;;;;;1.80;0.30;;;11.80;83.20;10.50;95567.00;;;;4978050;28;20589;-86
2023/12/23 03:39:49;;;;;;;0.30;0.10;;;11.80;82.60;10.50;95563.00;;;;4985226;28;20203;-86
2023/12/23 03:42:17;;;;;;;0.93;0.27;;;11.80;83.30;10.60;95567.00;;;;4979015;28;20714;-87
2023/12/23 03:44:44;;;;;;;0.43;0.10;;;11.80;83.30;10.60;95563.00;;;;4981859;28;20239;-87
2023/12/23 03:47:13;;;;;;;0.10;0.10;;;11.80;83.20;10.60;95581.00;;;;4967404;28;20248;-86
2023/12/23 03:49:40;;;;;;;0.30;0.10;;;11.80;83.10;10.60;95571.00;;;;4980483;28;20206;-86
2023/12/23 03:52:07;;;;;;;0.10;0.10;;;11.80;83.10;10.60;95574.00;;;;4974229;28;20241;-86
2023/12/23 03:54:34;;;;;;;0.20;0.10;;;11.90;83.20;10.60;95581.00;;;;4966100;28;20282;-86
2023/12/23 03:57:01;;;;;;;0.50;0.10;;;11.80;83.10;10.60;95585.00;;;;4982668;28;20706;-86
2023/12/23 03:59:28;;;;;;;0.00;0.00;;;11.80;83.10;10.60;95579.00;;;;4990728;28;20245;-86
2023/12/23 04:01:56;;;;;;;0.37;0.10;;;11.80;83.10;10.60;95582.00;;;;4975575;28;20223;-85
2023/12/23 04:04:24;;;;;;;1.13;0.20;;;11.80;83.00;10.60;95588.00;;;;4972344;28;20214;-86
2023/12/23 04:06:51;;;;;;;0.33;0.10;;;11.80;82.90;10.50;95587.00;;;;4988762;28;20653;-86
2023/12/23 04:09:19;;;;;;;0.20;0.10;;;11.80;82.90;10.50;95600.00;;;;4971926;28;20230;-86
2023/12/23 04:11:46;;;;;;;0.27;0.10;;;11.80;83.00;10.50;95618.00;;;;4976025;28;20204;-87
2023/12/23 04:14:13;;;;;;;0.33;0.10;;;11.80;83.10;10.50;95610.00;;;;4984862;28;20226;-86
2023/12/23 04:16:40;;;;;;;0.20;0.10;;;11.80;83.10;10.50;95603.00;;;;4973899;28;20251;-86
2023/12/23 04:19:07;;;;;;;0.10;0.10;;;11.80;83.20;10.40;95611.00;;;;4979290;28;20369;-86
2023/12/23 04:21:36;;;;;;;0.27;0.17;;;11.80;83.20;10.50;95622.00;;;;4982652;28;20242;-85
2023/12/23 04:24:04;;;;;;;0.17;0.10;;;11.80;83.20;10.40;95615.00;;;;4979428;28;20213;-85
2023/12/23 04:26:33;;;;;;;0.10;0.10;;;11.70;83.20;10.40;95614.00;;;;4972801;28;20315;-85
2023/12/23 04:29:00;;;;;;;0.10;0.00;;;11.70;83.40;10.40;95616.00;;;;4976199;28;20192;-85
2023/12/23 04:31:28;;;;;;;0.30;0.10;;;11.70;83.50;10.40;95614.00;;;;4979309;28;20229;-85
2023/12/23 04:33:55;;;;;;;0.63;0.20;;;11.70;83.70;10.40;95624.00;;;;4990761;28;20249;-85
2023/12/23 04:36:23;;;;;;;0.10;0.10;;;11.70;83.70;10.40;95624.00;;;;4981786;28;20219;-85
2023/12/23 04:38:51;;;;;;;0.20;0.13;;;11.70;83.70;10.40;95639.00;;;;4973456;28;20199;-85
2023/12/23 04:41:18;;;;;;;0.23;0.10;;;11.70;83.70;10.40;95626.00;;;;4981494;28;20359;-86
2023/12/23 04:43:46;;;;;;;0.20;0.10;;;11.70;83.80;10.40;95625.00;;;;4974084;28;20258;-86
2023/12/23 04:46:13;;;;;;;0.10;0.10;;;11.70;84.40;10.40;95630.00;;;;4981528;28;20224;-86
2023/12/23 04:48:40;;;;;;;0.20;0.00;;;11.70;83.80;10.40;95645.00;;;;4980681;28;20253;-86
2023/12/23 04:51:08;;;;;;;0.20;0.10;;;11.70;83.80;10.40;95622.00;;;;4973514;28;20826;-86
2023/12/23 04:53:35;;;;;;;2.33;0.30;;;11.70;83.70;10.40;95644.00;;;;4982090;28;20866;-85
2023/12/23 04:56:04;;;;;;;0.30;0.10;;;11.60;84.40;10.30;95625.00;;;;4972367;28;20250;-86
2023/12/23 04:58:31;;;;;;;0.10;0.10;;;11.60;83.60;10.30;95615.00;;;;4979118;28;20246;-85
2023/12/23 05:00:58;;;;;;;0.00;0.00;;;11.60;83.50;10.30;95605.00;;;;4980914;28;20302;-85
2023/12/23 05:03:31;;;;;;;0.20;0.00;;;11.60;83.70;10.30;95620.00;;;;4976873;28;20287;-86
2023/12/23 05:05:58;;;;;;;0.10;0.10;;;11.60;83.70;10.20;95622.00;;;;4977868;28;20222;-87
2023/12/23 05:08:25;;;;;;;0.10;0.10;;;11.50;83.60;10.20;95626.00;;;;4979063;28;20234;-87
2023/12/23 05:10:52;;;;;;;0.00;0.00;;;11.50;83.50;10.20;95628.00;;;;4983092;28;20239;-87
2023/12/23 05:13:23;;;;;;;0.00;0.00;;;11.50;83.50;10.20;95610.00;;;;4967775;28;20626;-87
2023/12/23 05:15:50;;;;;;;0.00;0.00;;;11.50;83.40;10.20;95623.00;;;;4986897;28;20247;-87
2023/12/23 05:18:17;;;;;;;0.00;0.00;;;11.50;83.50;10.10;95622.00;;;;4982758;28;20212;-87
2023/12/23 05:20:44;;;;;;;0.10;0.00;;;11.40;83.40;10.10;95616.00;;;;4971992;28;20315;-87
2023/12/23 05:23:12;;;;;;;0.00;0.00;;;11.50;83.60;10.10;95630.00;;;;4977439;28;20290;-87
2023/12/23 05:25:39;;;;;;;0.10;0.10;;;11.40;83.70;10.10;95616.00;;;;4975136;28;20251;-87
2023/12/23 05:28:08;;;;;;;0.00;0.00;;;11.30;83.50;10.10;95611.00;;;;4983446;28;20203;-88
2023/12/23 05:30:38;;;;;;;0.00;0.00;;;11.40;83.80;10.00;95616.00;;;;4976418;28;20206;-86
2023/12/23 05:33:06;;;;;;;0.00;0.00;;;11.40;83.80;10.00;95618.00;;;;4977342;28;20286;-87
2023/12/23 05:35:33;;;;;;;0.10;0.10;;;11.30;83.80;10.00;95614.00;;;;4983491;28;20253;-87
2023/12/23 05:38:01;;;;;;;0.30;0.10;;;11.30;83.80;10.00;95600.00;;;;4988746;28;20230;-86
2023/12/23 05:40:28;;;;;;;0.30;0.10;;;11.30;83.80;10.00;95593.00;;;;4971069;28;20213;-87
2023/12/23 05:42:58;;;;;;;0.00;0.00;;;11.30;83.90;10.00;95616.00;;;;4969343;28;20290;-87
2023/12/23 05:45:25;;;;;;;0.37;0.10;;;11.30;84.00;10.00;95605.00;;;;4971473;28;20269;-87
2023/12/23 05:47:54;;;;;;;0.50;0.10;;;11.30;84.00;10.00;95605.00;;;;4969635;28;20230;-87
2023/12/23 05:50:21;;;;;;;0.20;0.20;;;11.30;83.80;10.00;95610.00;;;;4970743;28;20239;-87
2023/12/23 05:52:48;;;;;;;0.10;0.00;;;11.30;83.90;10.00;95605.00;;;;4968774;28;20652;-85
2023/12/23 05:55:15;;;;;;;0.10;0.00;;;11.30;83.90;10.00;95617.00;;;;4973803;28;20257;-87
2023/12/23 05:57:42;;;;;;;0.00;0.00;;;11.30;83.90;10.00;95617.00;;;;4977626;28;20286;-87
2023/12/23 06:00:11;;;;;;;0.00;0.00;;;11.30;84.00;9.90;95611.00;;;;4986789;28;20195;-87
2023/12/23 06:02:38;;;;;;;0.07;0.00;;;11.30;84.10;9.90;95607.00;;;;4971413;28;20298;-88
2023/12/23 06:05:07;;;;;;;0.10;0.00;;;11.30;84.10;9.90;95607.00;;;;4971130;28;20342;-87
2023/12/23 06:07:35;;;;;;;1.70;0.43;;;11.20;83.80;9.90;95611.00;;;;4984363;28;20231;-87
2023/12/23 06:10:02;;;;;;;0.30;0.10;;;11.20;83.90;9.90;95605.00;;;;4979787;28;20199;-87
2023/12/23 06:12:30;;;;;;;0.20;0.20;;;11.20;83.90;9.90;95596.00;;;;4990251;28;20258;-87
2023/12/23 06:14:57;;;;;;;0.10;0.00;;;11.20;84.00;9.90;95627.00;;;;4973659;28;20262;-87
2023/12/23 06:17:24;;;;;;;0.10;0.10;;;11.20;84.00;9.90;95599.00;;;;4984393;28;20199;-88
2023/12/23 06:19:52;;;;;;;1.50;0.30;;;11.20;84.10;9.90;95605.00;;;;4981478;28;20234;-88
2023/12/23 06:22:20;;;;;;;0.13;0.10;;;11.20;84.10;9.90;95611.00;;;;4983190;28;20314;-88
2023/12/23 06:24:47;;;;;;;0.10;0.10;;;11.20;84.10;9.90;95603.00;;;;4974115;28;20253;-88
2023/12/23 06:27:14;;;;;;;0.20;0.03;;;11.20;84.00;9.90;95618.00;;;;4976854;28;20361;-88
2023/12/23 06:29:41;;;;;;;0.00;0.00;;;11.20;84.10;9.90;95617.00;;;;4980885;28;20230;-88
2023/12/23 06:32:09;;;;;;;0.00;0.00;;;11.20;84.20;9.90;95613.00;;;;4975759;28;20219;-88
2023/12/23 06:34:36;;;;;;;0.23;0.00;;;11.20;84.90;9.90;95606.00;;;;4985299;28;20230;-88
2023/12/23 06:37:03;;;;;;;0.03;0.00;;;11.20;84.30;9.90;95606.00;;;;4983526;28;20203;-88
2023/12/23 06:39:32;;;;;;;0.10;0.10;;;11.20;84.40;9.90;95605.00;;;;4980531;28;20245;-88
2023/12/23 06:41:59;;;;;;;0.00;0.00;;;11.20;84.30;10.00;95615.00;;;;4975393;28;20309;-88
2023/12/23 06:44:27;;;;;;;0.10;0.00;;;11.20;84.30;10.00;95605.00;;;;4979518;28;20281;-88
2023/12/23 06:46:54;;;;;;;0.33;0.10;;;11.20;84.30;10.00;95592.00;;;;4984458;28;20281;-88
2023/12/23 06:49:21;;;;;;;0.10;0.00;;;11.20;84.20;10.00;95587.00;;;;4978786;28;20289;-87
2023/12/23 06:51:48;;;;;;;0.10;0.00;;;11.20;84.30;10.00;95591.00;;;;4978436;28;20230;-89
2023/12/23 06:54:15;;;;;;;0.00;0.00;;;11.20;84.30;10.00;95604.00;;;;4983439;28;20290;-87
2023/12/23 06:56:43;;;;;;;0.30;0.00;;;11.30;85.00;10.00;95601.00;;;;4992648;28;20286;-88
2023/12/23 06:59:12;;;;;;;0.03;0.03;;;11.30;84.30;10.00;95622.00;;;;4981601;28;20254;-88
2023/12/23 07:01:41;;;;;;;0.00;0.00;;;11.30;85.00;10.00;95608.00;;;;4978355;28;20229;-88
2023/12/23 07:04:08;;;;;;;0.07;0.07;;;11.20;84.10;10.00;95605.00;;;;4974301;28;20204;-88
2023/12/23 07:06:36;;;;;;;0.10;0.00;;;11.20;84.20;9.90;95603.00;;;;4985347;28;20222;-88
2023/12/23 07:09:04;;;;;;;0.00;0.00;;;11.20;84.20;9.90;95612.00;;;;4976924;28;20255;-88
2023/12/23 07:11:31;;;;;;;0.57;0.10;;;11.30;84.30;9.90;95616.00;;;;4992931;28;20317;-88
2023/12/23 07:14:00;;;;;;;0.10;0.00;;;11.20;84.30;9.90;95605.00;;;;4986703;28;20199;-89
2023/12/23 07:16:27;;;;;;;0.00;0.00;;;11.20;84.20;9.90;95604.00;;;;4993233;28;20246;-88
2023/12/23 07:18:54;;;;;;;0.10;0.10;;;11.20;84.20;9.90;95619.00;;;;4976352;28;20258;-88
2023/12/23 07:21:21;;;;;;;0.33;0.33;;;11.20;84.20;9.90;95598.00;;;;4982462;28;20322;-88
2023/12/23 07:23:48;;;;;;;0.53;0.10;;;11.20;84.20;9.90;95600.00;;;;4974866;28;20633;-82
2023/12/23 07:26:16;;;;;;;0.33;0.10;;;11.20;84.20;9.90;95606.00;;;;4984132;28;20227;-82
2023/12/23 07:28:43;;;;;;;0.10;0.10;;;11.20;84.40;9.90;95597.00;;;;4986260;28;20226;-83
2023/12/23 07:31:12;;;;;;;0.20;0.10;;;11.20;84.40;9.90;95595.00;;;;4976476;28;20207;-82
2023/12/23 07:33:40;;;;;;;1.90;0.10;;;11.30;84.40;10.00;95609.00;;;;4986322;28;20196;-82
2023/12/23 07:36:08;;;;;;;0.37;0.10;;;11.30;84.40;10.00;95610.00;;;;4988687;28;20251;-82
2023/12/23 07:38:35;;;;;;;0.43;0.33;;;11.30;84.40;10.00;95594.00;;;;4984217;28;20207;-83
2023/12/23 07:41:02;;;;;;;0.13;0.10;;;11.30;84.30;10.00;95590.00;;;;4978526;28;20290;-83
2023/12/23 07:43:29;;;;;;;0.40;0.10;;;11.30;84.20;10.00;95596.00;;;;4971305;28;20622;-83
2023/12/23 07:45:56;;;;;;;0.20;0.20;;;11.30;84.40;10.00;95593.00;;;;4972227;28;20309;-85
2023/12/23 07:48:25;;;;;;;0.03;0.03;;;11.30;84.40;10.00;95595.00;;;;4973602;28;20238;-84
2023/12/23 07:50:52;;;;;;;0.10;0.10;;;11.30;84.50;10.00;95605.00;;;;4975541;28;20727;-84
2023/12/23 07:53:19;;;;;;;0.27;0.10;;;11.30;84.50;10.00;95598.00;;;;4981400;28;20235;-83
2023/12/23 07:55:46;;;;;;;0.10;0.07;;;11.30;84.50;10.00;95602.00;;;;4975981;28;20314;-83
2023/12/23 07:58:13;;;;;;;1.00;0.30;;;11.30;84.50;10.00;95608.00;;;;4992150;28;20719;-83
2023/12/23 08:00:40;;;;;;;0.10;0.10;;;11.30;84.60;10.00;95593.00;;;;4980077;28;20266;-83
2023/12/23 08:03:08;;;;;;;0.17;0.17;;;11.30;84.60;10.00;95609.00;;;;4984079;28;20260;-85
2023/12/23 08:05:37;;;;;;;0.40;0.40;;;11.30;84.70;10.00;95579.00;;;;4979482;28;20219;-82
2023/12/23 08:08:06;;;;;;;0.30;0.27;;;11.30;84.60;10.00;95600.00;;;;4976486;28;20223;-83
2023/12/23 08:10:33;;;;;;;0.30;0.30;;;11.30;84.70;10.00;95581.00;;;;4983768;28;20210;-82
2023/12/23 08:13:01;;;;;;;0.20;0.20;;;11.30;84.70;10.00;95585.00;;;;4993840;28;20577;-82
2023/12/23 08:15:28;;;;;;;0.57;0.20;;;11.40;84.80;10.10;95596.00;;;;4978495;28;20223;-84
2023/12/23 08:17:55;;;;;;;0.17;0.17;;;11.40;84.80;10.00;95573.00;;;;4978244;28;20262;-82
2023/12/23 08:20:24;;;;;;;0.07;0.07;;;11.30;84.60;10.10;95589.00;;;;4983946;28;20205;-83
2023/12/23 08:22:53;;;;;;;0.33;0.20;;;11.40;84.60;10.10;95567.00;;;;4976824;28;20243;-83
2023/12/23 08:25:20;;;;;;;0.10;0.10;;;11.40;84.50;10.10;95592.00;;;;4972709;28;20717;-82
2023/12/23 08:27:47;;;;;;;0.10;0.10;;;11.40;84.60;10.10;95583.00;;;;4989878;28;20234;-81
2023/12/23 08:30:15;;;;;;;0.10;0.10;;;11.40;85.30;10.10;95578.00;;;;4980090;28;20290;-81
2023/12/23 08:32:43;;;;;;;0.10;0.10;;;11.40;84.50;10.10;95587.00;;;;4985345;28;20223;-83
2023/12/23 08:35:10;;;;;;;0.20;0.20;;;11.40;84.50;10.10;95566.00;;;;4983607;28;20215;-83
2023/12/23 08:37:37;;;;;;;0.30;0.10;;;11.40;84.50;10.10;95573.00;;;;4977797;28;20215;-80
2023/12/23 08:40:08;;;;;;;0.30;0.10;;;11.40;84.50;10.10;95579.00;;;;4978351;28;20204;-82
2023/12/23 08:42:36;;;;;;;0.20;0.10;;;11.40;84.50;10.10;95594.00;;;;4986858;28;20246;-79
2023/12/23 08:45:03;;;;;;;0.10;0.10;;;11.40;84.60;10.10;95582.00;;;;4977447;28;20225;-82
2023/12/23 08:47:30;;;;;;;0.20;0.20;;;11.40;84.60;10.20;95557.00;;;;4982914;28;20241;-82
2023/12/23 08:49:57;;;;;;;0.10;0.10;;;11.40;84.70;10.20;95568.00;;;;4984544;28;20290;-82
2023/12/23 08:52:25;;;;;;;0.20;0.10;;;11.40;84.70;10.20;95571.00;;;;4975839;28;20223;-83
2023/12/23 08:54:52;;;;;;;0.20;0.10;;;11.40;84.70;10.20;95561.00;;;;4973063;28;20250;-83
2023/12/23 08:57:20;;;;;;;0.10;0.10;;;11.40;84.60;10.10;95561.00;;;;4980277;28;20238;-86
2023/12/23 08:59:48;;;;;;;0.10;0.10;;;11.50;84.50;10.20;95564.00;;;;4972791;28;20246;-84
2023/12/23 09:02:15;;;;;;;0.13;0.13;;;11.50;84.60;10.20;95575.00;;;;4980498;28;20310;-84
2023/12/23 09:04:42;;;;;;;0.10;0.10;;;11.50;84.60;10.20;95571.00;;;;4980421;28;20285;-85
2023/12/23 09:07:09;;;;;;;0.10;0.10;;;11.50;84.60;10.20;95594.00;;;;4990278;28;20287;-84
2023/12/23 09:09:36;;;;;;;0.10;0.10;;;11.50;84.60;10.20;95581.00;;;;4982909;28;20234;-84
2023/12/23 09:12:06;;;;;;;0.10;0.10;;;11.50;84.70;10.20;95572.00;;;;4975204;28;20199;-87
2023/12/23 09:14:35;;;;;;;0.37;0.10;;;11.50;84.60;10.20;95589.00;;;;4981254;28;20273;-84
2023/12/23 09:17:02;;;;;;;0.87;0.10;;;11.50;84.40;10.20;95578.00;;;;4976639;28;20199;-85
2023/12/23 09:19:32;;;;;;;0.07;0.07;;;11.50;84.40;10.20;95586.00;;;;4982104;28;20656;-87
2023/12/23 09:21:59;;;;;;;0.83;0.10;;;11.50;84.40;10.30;95575.00;;;;4987864;28;20250;-86
2023/12/23 09:24:26;;;;;;;0.03;0.03;;;11.50;84.40;10.30;95577.00;;;;4986032;28;20199;-86
2023/12/23 09:26:53;;;;;;;0.00;0.00;;;11.60;84.50;10.30;95573.00;;;;4968543;28;20774;-81
2023/12/23 09:29:21;;;;;;;0.10;0.10;;;11.60;84.50;10.30;95576.00;;;;4973171;28;20207;-83
2023/12/23 09:31:49;;;;;;;0.10;0.10;;;11.60;84.60;10.40;95592.00;;;;4983303;28;20203;-81
2023/12/23 09:34:16;;;;;;;0.20;0.20;;;11.60;84.60;10.40;95582.00;;;;4974155;28;20267;-80
2023/12/23 09:36:43;;;;;;;0.10;0.10;;;11.70;84.50;10.40;95577.00;;;;4981836;28;20254;-81
2023/12/23 09:39:11;;;;;;;0.20;0.20;;;11.70;84.40;10.40;95575.00;;;;4972838;28;20267;-81
2023/12/23 09:41:38;;;;;;;0.10;0.10;;;11.70;84.30;10.40;95581.00;;;;4976176;28;20223;-81
2023/12/23 09:44:05;;;;;;;0.10;0.03;;;11.60;84.30;10.40;95594.00;;;;4985815;28;20289;-81
2023/12/23 09:46:32;;;;;;;0.03;0.03;;;11.70;84.20;10.40;95570.00;;;;4983609;28;20314;-81
2023/12/23 09:49:01;;;;;;;0.50;0.20;;;11.70;84.20;10.40;95584.00;;;;4972903;28;20294;-83
2023/12/23 09:51:29;;;;;;;0.10;0.10;;;11.70;84.10;10.50;95580.00;;;;4976909;28;20484;-83
2023/12/23 09:53:59;;;;;;;0.30;0.10;;;11.70;83.90;10.50;95593.00;;;;4982641;28;20234;-83
2023/12/23 09:56:29;;;;;;;0.03;0.00;;;11.70;84.00;10.50;95576.00;;;;4984943;28;20242;-83
2023/12/23 09:58:57;;;;;;;0.10;0.10;;;11.70;83.80;10.50;95569.00;;;;4989330;28;20643;-84
2023/12/23 10:01:24;;;;;;;0.10;0.10;;;11.70;83.80;10.50;95569.00;;;;4973398;28;20234;-84
2023/12/23 10:03:53;;;;;;;0.00;0.00;;;11.80;83.80;10.50;95565.00;;;;4977857;28;20248;-83
2023/12/23 10:06:27;;;;;;;0.63;0.10;;;11.80;83.80;10.50;95612.00;;;;4965572;28;20220;-84
2023/12/23 10:08:55;;;;;;;0.10;0.10;;;11.80;83.80;10.50;95562.00;;;;4986004;28;20645;-84
2023/12/23 10:11:24;;;;;;;0.10;0.10;;;11.80;83.60;10.50;95556.00;;;;4965445;28;20275;-83
2023/12/23 10:13:52;;;;;;;0.10;0.10;;;11.80;83.50;10.50;95583.00;;;;4971217;28;20203;-83
2023/12/23 10:16:19;;;;;;;0.43;0.33;;;11.80;83.40;10.50;95578.00;;;;4973354;28;20310;-85
2023/12/23 10:18:47;;;;;;;0.63;0.20;;;11.80;83.50;10.50;95590.00;;;;4971021;28;20231;-84
2023/12/23 10:21:14;;;;;;;0.40;0.40;;;11.80;83.40;10.50;95566.00;;;;4988786;28;20290;-84
2023/12/23 10:23:42;;;;;;;0.20;0.20;;;11.80;83.30;10.50;95566.00;;;;4977208;28;20560;-83
2023/12/23 10:26:10;;;;;;;0.20;0.10;;;11.80;82.90;10.50;95565.00;;;;4980093;28;20259;-83
2023/12/23 10:28:39;;;;;;;0.10;0.10;;;11.80;83.10;10.50;95568.00;;;;4981965;28;20206;-83
2023/12/23 10:31:15;;;;;;;0.10;0.10;;;11.80;82.90;10.60;95544.00;;;;4987778;28;21090;-83
2023/12/23 10:33:52;;;;;;;0.10;0.10;;;11.80;83.00;10.60;95564.00;;;;4978189;28;20211;-83
2023/12/23 10:36:20;;;;;;;0.20;0.00;;;11.80;82.80;10.60;95564.00;;;;4981505;28;20309;-83
2023/12/23 10:38:57;;;;;;;0.10;0.10;;;11.90;82.60;10.60;95572.00;;;;4970255;28;20283;-82
2023/12/23 10:41:43;;;;;;;0.03;0.03;;;11.90;82.50;10.60;95563.00;;;;4967312;28;20282;-82
2023/12/23 10:44:12;;;;;;;0.10;0.10;;;11.90;82.20;10.60;95560.00;;;;4972118;28;20737;-82
2023/12/23 10:46:42;;;;;;;0.10;0.10;;;11.90;82.60;10.60;95554.00;;;;4980012;28;20246;-82
2023/12/23 10:49:11;;;;;;;0.10;0.10;;;11.90;82.80;10.70;95555.00;;;;4989865;28;20270;-82
2023/12/23 10:51:42;;;;;;;0.10;0.00;;;11.90;82.60;10.70;95562.00;;;;4985417;28;20286;-82
2023/12/23 10:54:12;;;;;;;0.40;0.10;;;11.90;82.70;10.70;95563.00;;;;4987555;28;20646;-82
2023/12/23 10:56:41;;;;;;;0.10;0.10;;;12.00;82.70;10.70;95553.00;;;;4978458;28;20237;-82
2023/12/23 10:59:08;;;;;;;0.20;0.10;;;12.00;82.80;10.70;95574.00;;;;4975688;28;20199;-82